Weather Underground® Station Historical Data


Station Historical Data For Bruceton, TN. (K3JAE's Weather Station - KTNBRUCE2)
Daily Summary for:  February 09, 2018 Units:  Both    English   Metric
« Previous Day
Next Day »
Daily Weekly Monthly Yearly Custom
  High: Low: Average:
Temperature: 63.1 °F /  17.3 °C 28.8 °F /  -1.8 °C 46.6 °F /  8.1 °C
Dew Point: 46.8 °F /  8.2 °C 25.6 °F /  -3.6 °C 33.9 °F /  1.1 °C
Humidity: 89% 35% 65%
Wind Speed: 19.6mph /  31.5km/h - 3.4mph /  5.5km/h
Wind Gust: 19.6mph /  31.5km/h - -
Wind- - South
Pressure: 30.37 in /  1028.3 hPa 30.06 in /  1017.8 hPa -
Precipitation: 0.37 in /  9.4 mm    
Historical Graphs
 
 
Tabular Data for:  February 09, 2018
Time Temperature Dew Point Pressure Wind Wind Speed Wind Gust Humidity Rainfall Rate (Hourly) solar Conditions
00:03 31.0 °F /  -0.6 °C 26.1 °F /  -3.3 °C 30.37in /  1028.3hPa SE 1.2mph /  1.9km/h 1.2mph /  1.9km/h 82% 0.00in /  0mm 0.0 W/m2 CLR
00:08 31.0 °F /  -0.6 °C 26.1 °F /  -3.3 °C 30.36in /  1028hPa SE 2.3mph /  3.7km/h 2.3mph /  3.7km/h 82% 0.00in /  0mm 0.0 W/m2 CLR
00:13 31.3 °F /  -0.4 °C 26.4 °F /  -3.1 °C 30.36in /  1028hPa SSE 2.3mph /  3.7km/h 2.3mph /  3.7km/h 82% 0.00in /  0mm 0.0 W/m2 CLR
00:18 31.7 °F /  -0.2 °C 26.8 °F /  -2.9 °C 30.36in /  1028hPa SSE 3.5mph /  5.6km/h 3.5mph /  5.6km/h 82% 0.00in /  0mm 0.0 W/m2 CLR
00:23 32.2 °F /  0.1 °C 26.7 °F /  -2.9 °C 30.36in /  1028hPa SSE 1.2mph /  1.9km/h   80% 0.00in /  0mm 0.0 W/m2 CLR
00:28 32.5 °F /  0.3 °C 27.0 °F /  -2.8 °C 30.36in /  1028hPa Calm     80% 0.00in /  0mm 0.0 W/m2 CLR
00:33 32.7 °F /  0.4 °C 26.9 °F /  -2.8 °C 30.36in /  1028hPa Calm     79% 0.00in /  0mm 0.0 W/m2 CLR
00:38 32.7 °F /  0.4 °C 26.9 °F /  -2.8 °C 30.36in /  1028hPa Calm     79% 0.00in /  0mm 0.0 W/m2 CLR
00:43 32.6 °F /  0.3 °C 26.8 °F /  -2.9 °C 30.35in /  1027.7hPa Calm     79% 0.00in /  0mm 0.0 W/m2 CLR
00:48 32.6 °F /  0.3 °C 26.8 °F /  -2.9 °C 30.35in /  1027.7hPa Calm     79% 0.00in /  0mm 0.0 W/m2 CLR
00:53 32.4 °F /  0.2 °C 26.9 °F /  -2.8 °C 30.35in /  1027.7hPa Calm     80% 0.00in /  0mm 0.0 W/m2 CLR
00:58 32.1 °F /  0.1 °C 26.6 °F /  -3 °C 30.35in /  1027.7hPa Calm     80% 0.00in /  0mm 0.0 W/m2 CLR
01:03 31.8 °F /  -0.1 °C 26.3 °F /  -3.2 °C 30.35in /  1027.7hPa Calm     80% 0.00in /  0mm 0.0 W/m2 CLR
01:08 31.5 °F /  -0.3 °C 26.0 °F /  -3.3 °C 30.35in /  1027.7hPa Calm     80% 0.00in /  0mm 0.0 W/m2 CLR
01:13 31.3 °F /  -0.4 °C 26.1 °F /  -3.3 °C 30.35in /  1027.7hPa Calm     81% 0.00in /  0mm 0.0 W/m2 CLR
01:18 31.2 °F /  -0.4 °C 26.3 °F /  -3.2 °C 30.35in /  1027.7hPa Calm     82% 0.00in /  0mm 0.0 W/m2 CLR
01:23 31.1 °F /  -0.5 °C 26.2 °F /  -3.2 °C 30.35in /  1027.7hPa Calm     82% 0.00in /  0mm 0.0 W/m2 CLR
01:28 31.0 °F /  -0.6 °C 26.4 °F /  -3.1 °C 30.35in /  1027.7hPa Calm     83% 0.00in /  0mm 0.0 W/m2 CLR
01:33 30.9 °F /  -0.6 °C 26.3 °F /  -3.2 °C 30.34in /  1027.3hPa Calm     83% 0.00in /  0mm 0.0 W/m2 CLR
01:38 30.9 °F /  -0.6 °C 26.3 °F /  -3.2 °C 30.34in /  1027.3hPa Calm     83% 0.00in /  0mm 0.0 W/m2 CLR
01:43 30.7 °F /  -0.7 °C 26.1 °F /  -3.3 °C 30.34in /  1027.3hPa Calm     83% 0.00in /  0mm 0.0 W/m2 CLR
01:48 30.5 °F /  -0.8 °C 26.2 °F /  -3.2 °C 30.33in /  1027hPa Calm     84% 0.00in /  0mm 0.0 W/m2 CLR
01:53 30.3 °F /  -0.9 °C 26.0 °F /  -3.3 °C 30.33in /  1027hPa Calm     84% 0.00in /  0mm 0.0 W/m2 CLR
01:58 30.0 °F /  -1.1 °C 25.8 °F /  -3.4 °C 30.33in /  1027hPa Calm     84% 0.00in /  0mm 0.0 W/m2 CLR
02:03 29.9 °F /  -1.2 °C 25.9 °F /  -3.4 °C 30.33in /  1027hPa Calm     85% 0.00in /  0mm 0.0 W/m2 CLR
02:08 29.8 °F /  -1.2 °C 25.8 °F /  -3.4 °C 30.33in /  1027hPa Calm     85% 0.00in /  0mm 0.0 W/m2 CLR
02:13 29.7 °F /  -1.3 °C 26.0 °F /  -3.3 °C 30.33in /  1027hPa Calm     86% 0.00in /  0mm 0.0 W/m2 CLR
02:18 29.6 °F /  -1.3 °C 25.9 °F /  -3.4 °C 30.32in /  1026.6hPa Calm     86% 0.00in /  0mm 0.0 W/m2 CLR
02:23 29.5 °F /  -1.4 °C 25.8 °F /  -3.4 °C 30.32in /  1026.6hPa Calm     86% 0.00in /  0mm 0.0 W/m2 CLR
02:28 29.5 °F /  -1.4 °C 25.8 °F /  -3.4 °C 30.32in /  1026.6hPa Calm     86% 0.00in /  0mm 0.0 W/m2 CLR
02:33 29.4 °F /  -1.4 °C 25.7 °F /  -3.5 °C 30.32in /  1026.6hPa Calm     86% 0.00in /  0mm 0.0 W/m2 CLR
02:38 29.4 °F /  -1.4 °C 26.0 °F /  -3.3 °C 30.32in /  1026.6hPa Calm     87% 0.00in /  0mm 0.0 W/m2 CLR
02:43 29.4 °F /  -1.4 °C 26.0 °F /  -3.3 °C 30.32in /  1026.6hPa Calm     87% 0.00in /  0mm 0.0 W/m2 CLR
02:48 29.3 °F /  -1.5 °C 25.9 °F /  -3.4 °C 30.32in /  1026.6hPa Calm     87% 0.00in /  0mm 0.0 W/m2 CLR
02:53 29.2 °F /  -1.6 °C 25.8 °F /  -3.4 °C 30.31in /  1026.3hPa Calm     87% 0.00in /  0mm 0.0 W/m2 CLR
02:58 29.2 °F /  -1.6 °C 25.8 °F /  -3.4 °C 30.31in /  1026.3hPa Calm     87% 0.00in /  0mm 0.0 W/m2 CLR
03:03 29.3 °F /  -1.5 °C 25.9 °F /  -3.4 °C 30.32in /  1026.6hPa Calm     87% 0.00in /  0mm 0.0 W/m2 CLR
03:08 29.4 °F /  -1.4 °C 26.0 °F /  -3.3 °C 30.32in /  1026.6hPa Calm     87% 0.00in /  0mm 0.0 W/m2 CLR
03:13 29.4 °F /  -1.4 °C 26.0 °F /  -3.3 °C 30.31in /  1026.3hPa Calm     87% 0.00in /  0mm 0.0 W/m2 CLR
03:18 29.4 °F /  -1.4 °C 26.0 °F /  -3.3 °C 30.31in /  1026.3hPa Calm     87% 0.00in /  0mm 0.0 W/m2 CLR
03:23 29.4 °F /  -1.4 °C 26.0 °F /  -3.3 °C 30.31in /  1026.3hPa Calm     87% 0.00in /  0mm 0.0 W/m2 CLR
03:28 29.6 °F /  -1.3 °C 26.2 °F /  -3.2 °C 30.31in /  1026.3hPa Calm     87% 0.00in /  0mm 0.0 W/m2 CLR
03:33 29.7 °F /  -1.3 °C 26.0 °F /  -3.3 °C 30.30in /  1026hPa Calm     86% 0.00in /  0mm 0.0 W/m2 CLR
03:38 29.7 °F /  -1.3 °C 26.0 °F /  -3.3 °C 30.30in /  1026hPa Calm     86% 0.00in /  0mm 0.0 W/m2 CLR
03:43 29.6 °F /  -1.3 °C 25.9 °F /  -3.4 °C 30.30in /  1026hPa Calm     86% 0.00in /  0mm 0.0 W/m2 CLR
03:48 29.6 °F /  -1.3 °C 26.2 °F /  -3.2 °C 30.30in /  1026hPa Calm     87% 0.00in /  0mm 0.0 W/m2 CLR
03:53 29.6 °F /  -1.3 °C 26.2 °F /  -3.2 °C 30.30in /  1026hPa SSE 1.2mph /  1.9km/h 1.2mph /  1.9km/h 87% 0.00in /  0mm 0.0 W/m2 CLR
03:58 29.5 °F /  -1.4 °C 25.8 °F /  -3.4 °C 30.30in /  1026hPa Calm     86% 0.00in /  0mm 0.0 W/m2 CLR
04:03 29.4 °F /  -1.4 °C 25.7 °F /  -3.5 °C 30.30in /  1026hPa Calm     86% 0.00in /  0mm 0.0 W/m2 CLR
04:08 29.3 °F /  -1.5 °C 25.9 °F /  -3.4 °C 30.30in /  1026hPa Calm     87% 0.00in /  0mm 0.0 W/m2 CLR
04:13 29.2 °F /  -1.6 °C 25.8 °F /  -3.4 °C 30.30in /  1026hPa Calm     87% 0.00in /  0mm 0.0 W/m2 CLR
04:18 29.1 °F /  -1.6 °C 25.7 °F /  -3.5 °C 30.30in /  1026hPa Calm     87% 0.00in /  0mm 0.0 W/m2 CLR
04:23 29.0 °F /  -1.7 °C 25.6 °F /  -3.6 °C 30.30in /  1026hPa Calm     87% 0.00in /  0mm 0.0 W/m2 CLR
04:28 28.9 °F /  -1.7 °C 25.8 °F /  -3.4 °C 30.30in /  1026hPa Calm     88% 0.00in /  0mm 0.0 W/m2 CLR
04:33 28.8 °F /  -1.8 °C 25.7 °F /  -3.5 °C 30.30in /  1026hPa SSE 1.2mph /  1.9km/h 1.2mph /  1.9km/h 88% 0.00in /  0mm 0.0 W/m2 CLR
04:38 28.8 °F /  -1.8 °C 25.7 °F /  -3.5 °C 30.30in /  1026hPa Calm     88% 0.00in /  0mm 0.0 W/m2 CLR
04:43 28.8 °F /  -1.8 °C 25.7 °F /  -3.5 °C 30.30in /  1026hPa Calm     88% 0.00in /  0mm 0.0 W/m2 CLR
04:48 28.8 °F /  -1.8 °C 25.7 °F /  -3.5 °C 30.30in /  1026hPa Calm     88% 0.00in /  0mm 0.0 W/m2 CLR
04:53 28.9 °F /  -1.7 °C 25.8 °F /  -3.4 °C 30.30in /  1026hPa Calm     88% 0.00in /  0mm 0.0 W/m2 CLR
04:54 28.8 °F /  -1.8 °C 25.7 °F /  -3.5 °C 30.30in /  1026hPa Calm     88% 0.00in /  0mm 0.0 W/m2 CLR
04:59 29.0 °F /  -1.7 °C 25.9 °F /  -3.4 °C 30.30in /  1026hPa Calm     88% 0.00in /  0mm 0.0 W/m2 CLR
05:04 29.2 °F /  -1.6 °C 26.1 °F /  -3.3 °C 30.31in /  1026.3hPa Calm     88% 0.00in /  0mm 0.0 W/m2 CLR
05:09 29.4 °F /  -1.4 °C 26.3 °F /  -3.2 °C 30.31in /  1026.3hPa Calm     88% 0.00in /  0mm 0.0 W/m2 CLR
05:14 29.6 °F /  -1.3 °C 26.5 °F /  -3.1 °C 30.31in /  1026.3hPa Calm     88% 0.00in /  0mm 0.0 W/m2 CLR
05:19 29.6 °F /  -1.3 °C 26.5 °F /  -3.1 °C 30.31in /  1026.3hPa Calm     88% 0.00in /  0mm 0.0 W/m2 CLR
05:24 29.7 °F /  -1.3 °C 26.6 °F /  -3 °C 30.31in /  1026.3hPa Calm     88% 0.00in /  0mm 0.0 W/m2 CLR
05:29 29.7 °F /  -1.3 °C 26.3 °F /  -3.2 °C 30.31in /  1026.3hPa SSE 1.2mph /  1.9km/h 1.2mph /  1.9km/h 87% 0.00in /  0mm 0.0 W/m2 CLR
05:34 29.6 °F /  -1.3 °C 26.5 °F /  -3.1 °C 30.31in /  1026.3hPa Calm     88% 0.00in /  0mm 0.0 W/m2 CLR
05:39 29.6 °F /  -1.3 °C 26.5 °F /  -3.1 °C 30.31in /  1026.3hPa Calm     88% 0.00in /  0mm 0.0 W/m2 CLR
05:44 29.5 °F /  -1.4 °C 26.4 °F /  -3.1 °C 30.31in /  1026.3hPa Calm     88% 0.00in /  0mm 0.0 W/m2 CLR
05:49 29.5 °F /  -1.4 °C 26.4 °F /  -3.1 °C 30.31in /  1026.3hPa Calm     88% 0.00in /  0mm 0.0 W/m2 CLR
05:54 29.5 °F /  -1.4 °C 26.4 °F /  -3.1 °C 30.31in /  1026.3hPa Calm     88% 0.00in /  0mm 0.0 W/m2 CLR
05:59 29.5 °F /  -1.4 °C 26.4 °F /  -3.1 °C 30.31in /  1026.3hPa Calm     88% 0.00in /  0mm 0.0 W/m2 CLR
06:04 29.6 °F /  -1.3 °C 26.5 °F /  -3.1 °C 30.31in /  1026.3hPa SSE 1.2mph /  1.9km/h   88% 0.00in /  0mm 0.0 W/m2 CLR
06:09 29.5 °F /  -1.4 °C 26.4 °F /  -3.1 °C 30.31in /  1026.3hPa Calm     88% 0.00in /  0mm 0.0 W/m2 CLR
06:14 29.4 °F /  -1.4 °C 26.3 °F /  -3.2 °C 30.32in /  1026.6hPa Calm     88% 0.00in /  0mm 0.0 W/m2 CLR
06:19 29.3 °F /  -1.5 °C 26.2 °F /  -3.2 °C 30.32in /  1026.6hPa Calm     88% 0.00in /  0mm 0.0 W/m2 CLR
06:24 29.3 °F /  -1.5 °C 26.2 °F /  -3.2 °C 30.32in /  1026.6hPa Calm     88% 0.00in /  0mm 0.0 W/m2 CLR
06:29 29.3 °F /  -1.5 °C 26.2 °F /  -3.2 °C 30.32in /  1026.6hPa Calm     88% 0.00in /  0mm 0.0 W/m2 CLR
06:34 29.3 °F /  -1.5 °C 26.2 °F /  -3.2 °C 30.32in /  1026.6hPa SSE 1.0mph /  1.6km/h 1.0mph /  1.6km/h 88% 0.00in /  0mm 0.0 W/m2 CLR
06:36 29.4 °F /  -1.4 °C 26.3 °F /  -3.2 °C 30.32in /  1026.6hPa SSE 1.2mph /  1.9km/h 1.2mph /  1.9km/h 88% 0.00in /  0mm 0.0 W/m2 CLR
06:41 29.4 °F /  -1.4 °C 26.3 °F /  -3.2 °C 30.32in /  1026.6hPa Calm     88% 0.00in /  0mm 0.0 W/m2 CLR
06:46 29.4 °F /  -1.4 °C 26.3 °F /  -3.2 °C 30.32in /  1026.6hPa Calm     88% 0.00in /  0mm 5.0 W/m2 CLR
06:51 29.5 °F /  -1.4 °C 26.4 °F /  -3.1 °C 30.32in /  1026.6hPa Calm     88% 0.00in /  0mm 7.0 W/m2 CLR
06:56 29.5 °F /  -1.4 °C 26.4 °F /  -3.1 °C 30.32in /  1026.6hPa Calm     88% 0.00in /  0mm 11.0 W/m2 CLR
07:01 29.4 °F /  -1.4 °C 26.3 °F /  -3.2 °C 30.32in /  1026.6hPa SSE 1.2mph /  1.9km/h 1.2mph /  1.9km/h 88% 0.00in /  0mm 16.0 W/m2 CLR
07:06 29.3 °F /  -1.5 °C 26.2 °F /  -3.2 °C 30.32in /  1026.6hPa Calm     88% 0.00in /  0mm 18.0 W/m2 CLR
07:11 29.2 °F /  -1.6 °C 26.1 °F /  -3.3 °C 30.32in /  1026.6hPa Calm     88% 0.00in /  0mm 23.0 W/m2 CLR
07:16 29.2 °F /  -1.6 °C 26.1 °F /  -3.3 °C 30.32in /  1026.6hPa Calm     88% 0.00in /  0mm 25.0 W/m2 CLR
07:21 29.2 °F /  -1.6 °C 26.4 °F /  -3.1 °C 30.32in /  1026.6hPa Calm     89% 0.00in /  0mm 26.0 W/m2 CLR
07:26 29.3 °F /  -1.5 °C 26.5 °F /  -3.1 °C 30.32in /  1026.6hPa Calm     89% 0.00in /  0mm 28.0 W/m2 CLR
07:31 29.4 °F /  -1.4 °C 26.6 °F /  -3 °C 30.32in /  1026.6hPa Calm     89% 0.00in /  0mm 37.0 W/m2 CLR
07:41 29.9 °F /  -1.2 °C 27.1 °F /  -2.7 °C 30.32in /  1026.6hPa SSE 2.0mph /  3.2km/h 2.0mph /  3.2km/h 89% 0.00in /  0mm 47.0 W/m2 CLR
07:46 30.3 °F /  -0.9 °C 27.2 °F /  -2.7 °C 30.32in /  1026.6hPa SSE 1.2mph /  1.9km/h 1.2mph /  1.9km/h 88% 0.00in /  0mm 63.0 W/m2 CLR
07:51 30.7 °F /  -0.7 °C 27.8 °F /  -2.3 °C 30.32in /  1026.6hPa SSE 1.2mph /  1.9km/h 1.2mph /  1.9km/h 89% 0.00in /  0mm 81.0 W/m2 CLR
07:56 31.2 °F /  -0.4 °C 28.1 °F /  -2.2 °C 30.32in /  1026.6hPa SSE 1.2mph /  1.9km/h 1.2mph /  1.9km/h 88% 0.00in /  0mm 90.0 W/m2 CLR
08:01 31.6 °F /  -0.2 °C 28.5 °F /  -1.9 °C 30.32in /  1026.6hPa SSE 2.3mph /  3.7km/h 2.3mph /  3.7km/h 88% 0.00in /  0mm 125.0 W/m2 CLR
08:06 32.1 °F /  0.1 °C 28.9 °F /  -1.7 °C 30.33in /  1027hPa SSE 2.3mph /  3.7km/h 2.3mph /  3.7km/h 88% 0.00in /  0mm 165.0 W/m2 CLR
08:11 32.5 °F /  0.3 °C 29.3 °F /  -1.5 °C 30.32in /  1026.6hPa SSE 2.3mph /  3.7km/h 2.3mph /  3.7km/h 88% 0.00in /  0mm 127.0 W/m2 CLR
08:16 33.1 °F /  0.6 °C 29.9 °F /  -1.2 °C 30.32in /  1026.6hPa SSE 2.3mph /  3.7km/h 2.3mph /  3.7km/h 88% 0.00in /  0mm 162.0 W/m2 CLR
08:21 33.9 °F /  1.1 °C 30.7 °F /  -0.7 °C 30.32in /  1026.6hPa SSE 2.3mph /  3.7km/h 2.3mph /  3.7km/h 88% 0.00in /  0mm 127.0 W/m2 CLR
08:26 34.7 °F /  1.5 °C 31.2 °F /  -0.4 °C 30.32in /  1026.6hPa SSE 2.3mph /  3.7km/h 2.3mph /  3.7km/h 87% 0.00in /  0mm 163.0 W/m2 CLR
08:31 35.6 °F /  2 °C 31.8 °F /  -0.1 °C 30.33in /  1027hPa SSE 2.3mph /  3.7km/h 2.3mph /  3.7km/h 86% 0.00in /  0mm 183.0 W/m2 CLR
08:36 36.6 °F /  2.6 °C 31.9 °F /  -0.1 °C 30.32in /  1026.6hPa SSE 3.5mph /  5.6km/h 3.5mph /  5.6km/h 83% 0.00in /  0mm 139.0 W/m2 CLR
08:41 37.8 °F /  3.2 °C 32.2 °F /  0.1 °C 30.32in /  1026.6hPa SSE 3.5mph /  5.6km/h 3.5mph /  5.6km/h 80% 0.00in /  0mm 236.0 W/m2 CLR
08:46 38.9 °F /  3.8 °C 32.9 °F /  0.5 °C 30.32in /  1026.6hPa South 3.5mph /  5.6km/h 3.5mph /  5.6km/h 79% 0.00in /  0mm 214.0 W/m2 CLR
08:51 40.0 °F /  4.4 °C 33.4 °F /  0.8 °C 30.32in /  1026.6hPa South 2.3mph /  3.7km/h 2.3mph /  3.7km/h 77% 0.00in /  0mm 142.0 W/m2 CLR
08:56 40.9 °F /  4.9 °C 33.6 °F /  0.9 °C 30.32in /  1026.6hPa South 3.0mph /  4.8km/h 3.0mph /  4.8km/h 75% 0.00in /  0mm 223.0 W/m2 CLR
09:01 41.9 °F /  5.5 °C 33.9 °F /  1.1 °C 30.32in /  1026.6hPa South 4.6mph /  7.4km/h 4.6mph /  7.4km/h 73% 0.00in /  0mm 160.0 W/m2 CLR
09:06 42.8 °F /  6 °C 34.0 °F /  1.1 °C 30.32in /  1026.6hPa South 3.5mph /  5.6km/h 3.5mph /  5.6km/h 71% 0.00in /  0mm 144.0 W/m2 CLR
09:11 43.6 °F /  6.4 °C 34.1 °F /  1.2 °C 30.32in /  1026.6hPa South 1.2mph /  1.9km/h 1.2mph /  1.9km/h 69% 0.00in /  0mm 251.0 W/m2 CLR
09:16 44.3 °F /  6.8 °C 34.0 °F /  1.1 °C 30.32in /  1026.6hPa South 2.3mph /  3.7km/h 2.3mph /  3.7km/h 67% 0.00in /  0mm 276.0 W/m2 CLR
09:21 45.2 °F /  7.3 °C 34.5 °F /  1.4 °C 30.32in /  1026.6hPa South 3.5mph /  5.6km/h 3.5mph /  5.6km/h 66% 0.00in /  0mm 123.0 W/m2 CLR
09:26 46.1 °F /  7.8 °C 34.6 °F /  1.4 °C 30.32in /  1026.6hPa SSW 5.0mph /  8km/h 5.0mph /  8km/h 64% 0.00in /  0mm 207.0 W/m2 CLR
09:31 47.1 °F /  8.4 °C 33.9 °F /  1.1 °C 30.32in /  1026.6hPa South 5.0mph /  8km/h 5.0mph /  8km/h 60% 0.00in /  0mm 172.0 W/m2 CLR
09:36 48.0 °F /  8.9 °C 33.9 °F /  1.1 °C 30.32in /  1026.6hPa SW 9.2mph /  14.8km/h 9.2mph /  14.8km/h 58% 0.00in /  0mm 311.0 W/m2 CLR
09:41 49.0 °F /  9.4 °C 34.0 °F /  1.1 °C 30.31in /  1026.3hPa SE 9.2mph /  14.8km/h 9.2mph /  14.8km/h 56% 0.00in /  0mm 323.0 W/m2 CLR
09:46 49.7 °F /  9.8 °C 33.7 °F /  0.9 °C 30.31in /  1026.3hPa South 9.2mph /  14.8km/h 9.2mph /  14.8km/h 54% 0.00in /  0mm 371.0 W/m2 CLR
09:51 50.0 °F /  10 °C 33.1 °F /  0.6 °C 30.30in /  1026hPa SSE 5.8mph /  9.3km/h 5.8mph /  9.3km/h 52% 0.00in /  0mm 199.0 W/m2 CLR
09:56 50.6 °F /  10.3 °C 34.1 °F /  1.2 °C 30.30in /  1026hPa SSW 9.0mph /  14.5km/h 9.0mph /  14.5km/h 53% 0.00in /  0mm 183.0 W/m2 CLR
10:01 51.0 °F /  10.6 °C 34.0 °F /  1.1 °C 30.30in /  1026hPa SE 5.8mph /  9.3km/h 5.8mph /  9.3km/h 52% 0.00in /  0mm 306.0 W/m2 CLR
10:06 51.5 °F /  10.8 °C 33.5 °F /  0.8 °C 30.30in /  1026hPa SSW 6.9mph /  11.1km/h 6.9mph /  11.1km/h 50% 0.00in /  0mm 227.0 W/m2 CLR
10:11 52.0 °F /  11.1 °C 34.9 °F /  1.6 °C 30.30in /  1026hPa SSE 3.5mph /  5.6km/h 3.5mph /  5.6km/h 52% 0.00in /  0mm 353.0 W/m2 CLR
10:16 52.5 °F /  11.4 °C 33.9 °F /  1.1 °C 30.30in /  1026hPa SSW 11.5mph /  18.5km/h 11.5mph /  18.5km/h 49% 0.00in /  0mm 204.0 W/m2 CLR
10:21 52.9 °F /  11.6 °C 34.2 °F /  1.2 °C 30.30in /  1026hPa SSW 9.2mph /  14.8km/h 9.2mph /  14.8km/h 49% 0.00in /  0mm 216.0 W/m2 CLR
10:26 53.4 °F /  11.9 °C 34.2 °F /  1.2 °C 30.30in /  1026hPa South 5.8mph /  9.3km/h 5.8mph /  9.3km/h 48% 0.00in /  0mm 197.0 W/m2 CLR
10:31 54.1 °F /  12.3 °C 34.3 °F /  1.3 °C 30.29in /  1025.6hPa SW 11.5mph /  18.5km/h 11.5mph /  18.5km/h 47% 0.00in /  0mm 221.0 W/m2 CLR
10:36 54.2 °F /  12.3 °C 33.9 °F /  1.1 °C 30.29in /  1025.6hPa SW 12.7mph /  20.4km/h 12.7mph /  20.4km/h 46% 0.00in /  0mm 538.0 W/m2 CLR
10:41 54.1 °F /  12.3 °C 33.8 °F /  1 °C 30.29in /  1025.6hPa SE 12.7mph /  20.4km/h 12.7mph /  20.4km/h 46% 0.00in /  0mm 522.0 W/m2 CLR
10:46 54.4 °F /  12.4 °C 34.6 °F /  1.4 °C 30.29in /  1025.6hPa SW 10.0mph /  16.1km/h 10.0mph /  16.1km/h 47% 0.00in /  0mm 612.0 W/m2 CLR
10:51 54.7 °F /  12.6 °C 34.3 °F /  1.3 °C 30.28in /  1025.3hPa SW 13.8mph /  22.2km/h 13.8mph /  22.2km/h 46% 0.00in /  0mm 541.0 W/m2 CLR
10:56 55.0 °F /  12.8 °C 34.6 °F /  1.4 °C 30.28in /  1025.3hPa SSE 9.2mph /  14.8km/h 9.2mph /  14.8km/h 46% 0.00in /  0mm 612.0 W/m2 CLR
10:59 55.4 °F /  13 °C 34.4 °F /  1.3 °C 30.28in /  1025.3hPa SSW 18.4mph /  29.6km/h 18.4mph /  29.6km/h 45% 0.00in /  0mm 622.0 W/m2 CLR
11:04 55.6 °F /  13.1 °C 34.0 °F /  1.1 °C 30.27in /  1024.9hPa SSW 16.1mph /  25.9km/h 16.1mph /  25.9km/h 44% 0.00in /  0mm 599.0 W/m2 CLR
11:09 55.9 °F /  13.3 °C 35.4 °F /  1.9 °C 30.27in /  1024.9hPa SW 14.0mph /  22.5km/h 14.0mph /  22.5km/h 46% 0.00in /  0mm 619.0 W/m2 CLR
11:14 56.5 °F /  13.6 °C 34.8 °F /  1.6 °C 30.27in /  1024.9hPa SSW 11.5mph /  18.5km/h 11.5mph /  18.5km/h 44% 0.00in /  0mm 642.0 W/m2 CLR
11:19 56.9 °F /  13.8 °C 34.6 °F /  1.4 °C 30.26in /  1024.6hPa South 10.4mph /  16.7km/h 10.4mph /  16.7km/h 43% 0.00in /  0mm 606.0 W/m2 CLR
11:24 57.2 °F /  14 °C 35.5 °F /  1.9 °C 30.26in /  1024.6hPa SSW 9.2mph /  14.8km/h 9.2mph /  14.8km/h 44% 0.00in /  0mm 612.0 W/m2 CLR
11:29 57.3 °F /  14.1 °C 34.4 °F /  1.3 °C 30.26in /  1024.6hPa SW 15.0mph /  24.1km/h 15.0mph /  24.1km/h 42% 0.00in /  0mm 652.0 W/m2 CLR
11:34 57.5 °F /  14.2 °C 34.6 °F /  1.4 °C 30.26in /  1024.6hPa SW 13.8mph /  22.2km/h 13.8mph /  22.2km/h 42% 0.00in /  0mm 621.0 W/m2 CLR
11:39 57.8 °F /  14.3 °C 33.6 °F /  0.9 °C 30.25in /  1024.3hPa South 19.6mph /  31.5km/h 19.6mph /  31.5km/h 40% 0.00in /  0mm 638.0 W/m2 CLR
11:44 58.1 °F /  14.5 °C 34.5 °F /  1.4 °C 30.25in /  1024.3hPa SSW 16.1mph /  25.9km/h 16.1mph /  25.9km/h 41% 0.00in /  0mm 603.0 W/m2 CLR
11:49 58.1 °F /  14.5 °C 35.1 °F /  1.7 °C 30.25in /  1024.3hPa SSW 13.8mph /  22.2km/h 13.8mph /  22.2km/h 42% 0.00in /  0mm 643.0 W/m2 CLR
11:54 58.1 °F /  14.5 °C 35.1 °F /  1.7 °C 30.24in /  1023.9hPa SSW 11.5mph /  18.5km/h 11.5mph /  18.5km/h 42% 0.00in /  0mm 608.0 W/m2 CLR
11:59 58.8 °F /  14.9 °C 35.1 °F /  1.7 °C 30.24in /  1023.9hPa SSW 13.8mph /  22.2km/h 13.8mph /  22.2km/h 41% 0.00in /  0mm 619.0 W/m2 CLR
12:04 58.9 °F /  14.9 °C 35.8 °F /  2.1 °C 30.24in /  1023.9hPa SW 9.0mph /  14.5km/h 9.0mph /  14.5km/h 42% 0.00in /  0mm 599.0 W/m2 CLR
12:09 59.3 °F /  15.2 °C 35.6 °F /  2 °C 30.23in /  1023.6hPa SSW 10.4mph /  16.7km/h 10.4mph /  16.7km/h 41% 0.00in /  0mm 652.0 W/m2 CLR
12:14 59.5 °F /  15.3 °C 35.1 °F /  1.7 °C 30.23in /  1023.6hPa SSW 16.1mph /  25.9km/h 16.1mph /  25.9km/h 40% 0.00in /  0mm 645.0 W/m2 CLR
12:19 59.5 °F /  15.3 °C 33.9 °F /  1.1 °C 30.23in /  1023.6hPa SW 15.0mph /  24.1km/h 15.0mph /  24.1km/h 38% 0.00in /  0mm 656.0 W/m2 CLR
12:24 59.4 °F /  15.2 °C 34.4 °F /  1.3 °C 30.22in /  1023.2hPa South 19.6mph /  31.5km/h 19.6mph /  31.5km/h 39% 0.00in /  0mm 657.0 W/m2 CLR
12:29 60.0 °F /  15.6 °C 35.0 °F /  1.7 °C 30.22in /  1023.2hPa SSW 17.3mph /  27.8km/h 17.3mph /  27.8km/h 39% 0.00in /  0mm 652.0 W/m2 CLR
12:34 59.9 °F /  15.5 °C 36.1 °F /  2.3 °C 30.21in /  1022.9hPa WSW 8.1mph /  13km/h 8.1mph /  13km/h 41% 0.00in /  0mm 657.0 W/m2 CLR
12:39 60.1 °F /  15.6 °C 35.7 °F /  2.1 °C 30.21in /  1022.9hPa South 8.1mph /  13km/h 8.1mph /  13km/h 40% 0.00in /  0mm 661.0 W/m2 CLR
12:44 60.8 °F /  16 °C 36.3 °F /  2.4 °C 30.20in /  1022.6hPa SW 8.1mph /  13km/h 8.1mph /  13km/h 40% 0.00in /  0mm 661.0 W/m2 CLR
12:49 61.4 °F /  16.3 °C 36.2 °F /  2.3 °C 30.20in /  1022.6hPa SSW 9.2mph /  14.8km/h 9.2mph /  14.8km/h 39% 0.00in /  0mm 657.0 W/m2 CLR
12:54 61.7 °F /  16.5 °C 35.8 °F /  2.1 °C 30.20in /  1022.6hPa South 13.8mph /  22.2km/h 13.8mph /  22.2km/h 38% 0.00in /  0mm 664.0 W/m2 CLR
12:59 61.6 °F /  16.4 °C 36.4 °F /  2.4 °C 30.19in /  1022.2hPa SW 8.1mph /  13km/h 8.1mph /  13km/h 39% 0.00in /  0mm 649.0 W/m2 CLR
13:04 61.9 °F /  16.6 °C 36.0 °F /  2.2 °C 30.19in /  1022.2hPa SW 9.2mph /  14.8km/h 9.2mph /  14.8km/h 38% 0.00in /  0mm 568.0 W/m2 FEW
13:09 62.2 °F /  16.8 °C 36.9 °F /  2.7 °C 30.19in /  1022.2hPa SSW 5.8mph /  9.3km/h 5.8mph /  9.3km/h 39% 0.00in /  0mm 606.0 W/m2 FEW
13:14 62.4 °F /  16.9 °C 36.4 °F /  2.4 °C 30.18in /  1021.9hPa SE 8.1mph /  13km/h 8.1mph /  13km/h 38% 0.00in /  0mm 617.0 W/m2 FEW
13:19 62.2 °F /  16.8 °C 36.3 °F /  2.4 °C 30.18in /  1021.9hPa SSW 9.2mph /  14.8km/h 9.2mph /  14.8km/h 38% 0.00in /  0mm 626.0 W/m2 FEW
13:24 62.5 °F /  16.9 °C 37.2 °F /  2.9 °C 30.18in /  1021.9hPa West 8.1mph /  13km/h 8.1mph /  13km/h 39% 0.00in /  0mm 599.0 W/m2 FEW
13:29 63.1 °F /  17.3 °C 36.4 °F /  2.4 °C 30.17in /  1021.6hPa SSW 6.9mph /  11.1km/h 6.9mph /  11.1km/h 37% 0.00in /  0mm 608.0 W/m2 FEW
13:34 63.1 °F /  17.3 °C 35.7 °F /  2.1 °C 30.17in /  1021.6hPa SSW 5.8mph /  9.3km/h 5.8mph /  9.3km/h 36% 0.00in /  0mm 603.0 W/m2 FEW
13:39 62.9 °F /  17.2 °C 35.5 °F /  1.9 °C 30.16in /  1021.2hPa WSW 12.7mph /  20.4km/h 12.7mph /  20.4km/h 36% 0.00in /  0mm 617.0 W/m2 FEW
13:44 62.8 °F /  17.1 °C 34.7 °F /  1.5 °C 30.16in /  1021.2hPa SW 9.2mph /  14.8km/h 9.2mph /  14.8km/h 35% 0.00in /  0mm 114.0 W/m2 FEW
13:49 62.2 °F /  16.8 °C 34.2 °F /  1.2 °C 30.16in /  1021.2hPa SW 8.1mph /  13km/h 8.1mph /  13km/h 35% 0.00in /  0mm 258.0 W/m2 FEW
13:54 61.7 °F /  16.5 °C 35.1 °F /  1.7 °C 30.16in /  1021.2hPa SW 4.0mph /  6.4km/h 4.0mph /  6.4km/h 37% 0.00in /  0mm 267.0 W/m2 FEW
13:59 61.6 °F /  16.4 °C 35.7 °F /  2.1 °C 30.16in /  1021.2hPa South 5.0mph /  8km/h 5.0mph /  8km/h 38% 0.00in /  0mm 237.0 W/m2 FEW
14:04 61.5 °F /  16.4 °C 35.0 °F /  1.7 °C 30.16in /  1021.2hPa SSW 8.1mph /  13km/h 8.1mph /  13km/h 37% 0.00in /  0mm 174.0 W/m2 OVC
14:09 61.3 °F /  16.3 °C 35.5 °F /  1.9 °C 30.16in /  1021.2hPa WSW 9.2mph /  14.8km/h 9.2mph /  14.8km/h 38% 0.00in /  0mm 199.0 W/m2 OVC
14:14 61.1 °F /  16.2 °C 35.3 °F /  1.8 °C 30.16in /  1021.2hPa SW 4.6mph /  7.4km/h 4.6mph /  7.4km/h 38% 0.00in /  0mm 185.0 W/m2 OVC
14:19 61.1 °F /  16.2 °C 35.3 °F /  1.8 °C 30.16in /  1021.2hPa SW 6.9mph /  11.1km/h 6.9mph /  11.1km/h 38% 0.00in /  0mm 174.0 W/m2 OVC
14:24 61.2 °F /  16.2 °C 35.4 °F /  1.9 °C 30.16in /  1021.2hPa SW 8.1mph /  13km/h 8.1mph /  13km/h 38% 0.00in /  0mm 193.0 W/m2 OVC
14:30 61.2 °F /  16.2 °C 36.7 °F /  2.6 °C 30.15in /  1020.9hPa SSW 3.5mph /  5.6km/h 3.5mph /  5.6km/h 40% 0.00in /  0mm 176.0 W/m2 OVC
14:35 61.2 °F /  16.2 °C 36.0 °F /  2.2 °C 30.16in /  1021.2hPa SW 5.8mph /  9.3km/h 5.8mph /  9.3km/h 39% 0.00in /  0mm 169.0 W/m2 OVC
14:40 61.2 °F /  16.2 °C 36.0 °F /  2.2 °C 30.15in /  1020.9hPa SSW 9.2mph /  14.8km/h 9.2mph /  14.8km/h 39% 0.00in /  0mm 163.0 W/m2 OVC
14:45 61.1 °F /  16.2 °C 35.3 °F /  1.8 °C 30.15in /  1020.9hPa SSW 6.9mph /  11.1km/h 6.9mph /  11.1km/h 38% 0.00in /  0mm 148.0 W/m2 OVC
14:50 61.0 °F /  16.1 °C 36.5 °F /  2.5 °C 30.15in /  1020.9hPa SW 4.0mph /  6.4km/h 4.0mph /  6.4km/h 40% 0.00in /  0mm 148.0 W/m2 OVC
14:55 61.0 °F /  16.1 °C 37.7 °F /  3.2 °C 30.15in /  1020.9hPa SW 5.0mph /  8km/h 5.0mph /  8km/h 42% 0.00in /  0mm 192.0 W/m2 OVC
15:00 61.1 °F /  16.2 °C 35.9 °F /  2.2 °C 30.15in /  1020.9hPa SW 4.6mph /  7.4km/h 4.6mph /  7.4km/h 39% 0.00in /  0mm 216.0 W/m2 OVC
15:05 61.3 °F /  16.3 °C 36.8 °F /  2.7 °C 30.14in /  1020.5hPa WSW 4.6mph /  7.4km/h 4.6mph /  7.4km/h 40% 0.00in /  0mm 195.0 W/m2 OVC
15:10 61.3 °F /  16.3 °C 36.8 °F /  2.7 °C 30.14in /  1020.5hPa SSW 10.4mph /  16.7km/h 10.4mph /  16.7km/h 40% 0.00in /  0mm 174.0 W/m2 OVC
15:15 61.3 °F /  16.3 °C 36.1 °F /  2.3 °C 30.15in /  1020.9hPa SW 10.4mph /  16.7km/h 10.4mph /  16.7km/h 39% 0.00in /  0mm 165.0 W/m2 OVC
15:20 61.4 °F /  16.3 °C 36.2 °F /  2.3 °C 30.15in /  1020.9hPa SW 9.2mph /  14.8km/h 9.2mph /  14.8km/h 39% 0.00in /  0mm 158.0 W/m2 OVC
15:25 61.4 °F /  16.3 °C 36.2 °F /  2.3 °C 30.14in /  1020.5hPa SSW 6.9mph /  11.1km/h 6.9mph /  11.1km/h 39% 0.00in /  0mm 137.0 W/m2 OVC
15:30 61.4 °F /  16.3 °C 36.2 °F /  2.3 °C 30.14in /  1020.5hPa SSW 6.0mph /  9.7km/h 6.0mph /  9.7km/h 39% 0.00in /  0mm 128.0 W/m2 OVC
15:35 61.2 °F /  16.2 °C 35.4 °F /  1.9 °C 30.14in /  1020.5hPa SSW 9.2mph /  14.8km/h 9.2mph /  14.8km/h 38% 0.00in /  0mm 132.0 W/m2 OVC
15:40 61.3 °F /  16.3 °C 36.1 °F /  2.3 °C 30.14in /  1020.5hPa SSW 9.2mph /  14.8km/h 9.2mph /  14.8km/h 39% 0.00in /  0mm 139.0 W/m2 OVC
15:45 61.2 °F /  16.2 °C 36.0 °F /  2.2 °C 30.14in /  1020.5hPa SSW 11.5mph /  18.5km/h 11.5mph /  18.5km/h 39% 0.00in /  0mm 146.0 W/m2 OVC
15:50 61.3 °F /  16.3 °C 36.1 °F /  2.3 °C 30.14in /  1020.5hPa SE 8.1mph /  13km/h 8.1mph /  13km/h 39% 0.00in /  0mm 144.0 W/m2 OVC
15:55 61.3 °F /  16.3 °C 36.8 °F /  2.7 °C 30.13in /  1020.2hPa SW 8.0mph /  12.9km/h 8.0mph /  12.9km/h 40% 0.00in /  0mm 127.0 W/m2 OVC
16:00 61.3 °F /  16.3 °C 36.8 °F /  2.7 °C 30.13in /  1020.2hPa WSW 9.2mph /  14.8km/h 9.2mph /  14.8km/h 40% 0.00in /  0mm 120.0 W/m2 OVC
16:05 61.1 °F /  16.2 °C 37.2 °F /  2.9 °C 30.13in /  1020.2hPa SW 9.2mph /  14.8km/h 9.2mph /  14.8km/h 41% 0.00in /  0mm 86.0 W/m2 OVC
16:10 60.9 °F /  16.1 °C 37.0 °F /  2.8 °C 30.13in /  1020.2hPa South 9.2mph /  14.8km/h 9.2mph /  14.8km/h 41% 0.00in /  0mm 62.0 W/m2 OVC
16:15 60.8 °F /  16 °C 37.5 °F /  3.1 °C 30.13in /  1020.2hPa SW 6.0mph /  9.7km/h 6.0mph /  9.7km/h 42% 0.00in /  0mm 67.0 W/m2 OVC
16:20 60.7 °F /  15.9 °C 36.8 °F /  2.7 °C 30.13in /  1020.2hPa SW 8.1mph /  13km/h 8.1mph /  13km/h 41% 0.00in /  0mm 62.0 W/m2 OVC
16:25 60.6 °F /  15.9 °C 36.8 °F /  2.7 °C 30.13in /  1020.2hPa SW 6.9mph /  11.1km/h 6.9mph /  11.1km/h 41% 0.00in /  0mm 63.0 W/m2 OVC
16:30 60.6 °F /  15.9 °C 37.4 °F /  3 °C 30.13in /  1020.2hPa SSE 3.5mph /  5.6km/h 3.5mph /  5.6km/h 42% 0.00in /  0mm 53.0 W/m2 OVC
16:35 60.5 °F /  15.8 °C 37.3 °F /  2.9 °C 30.13in /  1020.2hPa SW 7.0mph /  11.3km/h 7.0mph /  11.3km/h 42% 0.00in /  0mm 40.0 W/m2 OVC
16:40 60.5 °F /  15.8 °C 37.3 °F /  2.9 °C 30.13in /  1020.2hPa South 5.8mph /  9.3km/h 5.8mph /  9.3km/h 42% 0.00in /  0mm 37.0 W/m2 OVC
16:45 60.4 °F /  15.8 °C 37.8 °F /  3.2 °C 30.13in /  1020.2hPa South 2.0mph /  3.2km/h 2.0mph /  3.2km/h 43% 0.00in /  0mm 37.0 W/m2 OVC
16:50 60.2 °F /  15.7 °C 38.2 °F /  3.4 °C 30.13in /  1020.2hPa SSW 3.5mph /  5.6km/h 3.5mph /  5.6km/h 44% 0.00in /  0mm 32.0 W/m2 OVC
16:55 60.1 °F /  15.6 °C 38.1 °F /  3.4 °C 30.13in /  1020.2hPa SSW 4.6mph /  7.4km/h 4.6mph /  7.4km/h 44% 0.00in /  0mm 30.0 W/m2 OVC
17:00 59.9 °F /  15.5 °C 37.9 °F /  3.3 °C 30.12in /  1019.9hPa SSW 3.5mph /  5.6km/h 3.5mph /  5.6km/h 44% 0.00in /  0mm 26.0 W/m2 OVC
17:05 59.8 °F /  15.4 °C 37.8 °F /  3.2 °C 30.12in /  1019.9hPa South 2.0mph /  3.2km/h 2.0mph /  3.2km/h 44% 0.00in /  0mm 19.0 W/m2 BKN
17:10 59.6 °F /  15.3 °C 38.2 °F /  3.4 °C 30.12in /  1019.9hPa South 1.2mph /  1.9km/h   45% 0.00in /  0mm 18.0 W/m2 BKN
17:15 59.5 °F /  15.3 °C 38.1 °F /  3.4 °C 30.12in /  1019.9hPa Calm     45% 0.00in /  0mm 11.0 W/m2 BKN
17:20 59.3 °F /  15.2 °C 37.9 °F /  3.3 °C 30.12in /  1019.9hPa Calm     45% 0.00in /  0mm 7.0 W/m2 BKN
17:25 59.1 °F /  15.1 °C 37.8 °F /  3.2 °C 30.12in /  1019.9hPa South 1.2mph /  1.9km/h 1.2mph /  1.9km/h 45% 0.00in /  0mm 5.0 W/m2 BKN
17:30 58.9 °F /  14.9 °C 38.1 °F /  3.4 °C 30.11in /  1019.5hPa South 1.2mph /  1.9km/h   46% 0.00in /  0mm 0.0 W/m2 BKN
17:35 58.6 °F /  14.8 °C 38.4 °F /  3.6 °C 30.11in /  1019.5hPa South 2.0mph /  3.2km/h 2.0mph /  3.2km/h 47% 0.00in /  0mm 0.0 W/m2 BKN
17:40 58.3 °F /  14.6 °C 38.1 °F /  3.4 °C 30.11in /  1019.5hPa SSE 2.3mph /  3.7km/h 2.3mph /  3.7km/h 47% 0.00in /  0mm 0.0 W/m2 BKN
17:45 58.2 °F /  14.6 °C 38.1 °F /  3.4 °C 30.12in /  1019.9hPa SSE 2.3mph /  3.7km/h 2.3mph /  3.7km/h 47% 0.00in /  0mm 0.0 W/m2 BKN
17:50 58.1 °F /  14.5 °C 38.5 °F /  3.6 °C 30.12in /  1019.9hPa SSE 1.2mph /  1.9km/h 1.2mph /  1.9km/h 48% 0.00in /  0mm 0.0 W/m2 BKN
17:55 57.9 °F /  14.4 °C 38.3 °F /  3.5 °C 30.12in /  1019.9hPa Calm     48% 0.00in /  0mm 0.0 W/m2 BKN
18:00 57.5 °F /  14.2 °C 37.9 °F /  3.3 °C 30.12in /  1019.9hPa SSE 2.3mph /  3.7km/h 2.3mph /  3.7km/h 48% 0.00in /  0mm 0.0 W/m2 BKN
18:05 57.3 °F /  14.1 °C 38.3 °F /  3.5 °C 30.12in /  1019.9hPa Calm     49% 0.00in /  0mm 0.0 W/m2 OVC
18:10 57.0 °F /  13.9 °C 38.5 °F /  3.6 °C 30.12in /  1019.9hPa SSE 2.3mph /  3.7km/h 2.3mph /  3.7km/h 50% 0.00in /  0mm 0.0 W/m2 OVC
18:15 56.9 °F /  13.8 °C 38.4 °F /  3.6 °C 30.12in /  1019.9hPa SSE 2.3mph /  3.7km/h 2.3mph /  3.7km/h 50% 0.00in /  0mm 0.0 W/m2 OVC
18:20 56.8 °F /  13.8 °C 38.3 °F /  3.5 °C 30.12in /  1019.9hPa SSE 1.2mph /  1.9km/h   50% 0.00in /  0mm 0.0 W/m2 OVC
18:25 56.7 °F /  13.7 °C 38.8 °F /  3.8 °C 30.12in /  1019.9hPa Calm     51% 0.00in /  0mm 0.0 W/m2 OVC
18:30 56.6 °F /  13.7 °C 38.7 °F /  3.7 °C 30.12in /  1019.9hPa SSE 1.2mph /  1.9km/h 1.2mph /  1.9km/h 51% 0.00in /  0mm 0.0 W/m2 OVC
18:35 56.5 °F /  13.6 °C 39.1 °F /  3.9 °C 30.12in /  1019.9hPa SSE 1.0mph /  1.6km/h 2.0mph /  3.2km/h 52% 0.00in /  0mm 0.0 W/m2 OVC
18:40 56.4 °F /  13.6 °C 39.0 °F /  3.9 °C 30.12in /  1019.9hPa Calm   3.0mph /  4.8km/h 52% 0.00in /  0mm 0.0 W/m2 OVC
18:45 56.3 °F /  13.5 °C 38.9 °F /  3.8 °C 30.12in /  1019.9hPa Calm     52% 0.00in /  0mm 0.0 W/m2 OVC
18:50 56.3 °F /  13.5 °C 38.9 °F /  3.8 °C 30.12in /  1019.9hPa Calm   1.0mph /  1.6km/h 52% 0.00in /  0mm 0.0 W/m2 OVC
18:55 56.1 °F /  13.4 °C 39.2 °F /  4 °C 30.12in /  1019.9hPa Calm   2.0mph /  3.2km/h 53% 0.00in /  0mm 0.0 W/m2 OVC
19:00 55.9 °F /  13.3 °C 39.0 °F /  3.9 °C 30.12in /  1019.9hPa SSE 1.2mph /  1.9km/h   53% 0.00in /  0mm 0.0 W/m2 OVC
19:05 55.7 °F /  13.2 °C 38.8 °F /  3.8 °C 30.12in /  1019.9hPa Calm     53% 0.00in /  0mm 0.0 W/m2 SCT
19:10 55.6 °F /  13.1 °C 38.7 °F /  3.7 °C 30.12in /  1019.9hPa SSE 1.2mph /  1.9km/h   53% 0.00in /  0mm 0.0 W/m2 SCT
19:15 55.7 °F /  13.2 °C 38.8 °F /  3.8 °C 30.12in /  1019.9hPa Calm   0.6mph /  1km/h 53% 0.00in /  0mm 0.0 W/m2 SCT
19:20 55.6 °F /  13.1 °C 39.2 °F /  4 °C 30.11in /  1019.5hPa Calm     54% 0.00in /  0mm 0.0 W/m2 SCT
19:25 55.6 °F /  13.1 °C 39.2 °F /  4 °C 30.11in /  1019.5hPa Calm   1.0mph /  1.6km/h 54% 0.00in /  0mm 0.0 W/m2 SCT
19:27 55.5 °F /  13.1 °C 39.1 °F /  3.9 °C 30.11in /  1019.5hPa Calm     54% 0.00in /  0mm 0.0 W/m2 SCT
19:32 55.3 °F /  12.9 °C 39.4 °F /  4.1 °C 30.11in /  1019.5hPa SSE 1.2mph /  1.9km/h   55% 0.00in /  0mm 0.0 W/m2 SCT
19:37 55.1 °F /  12.8 °C 39.2 °F /  4 °C 30.11in /  1019.5hPa SSE 1.2mph /  1.9km/h   55% 0.00in /  0mm 0.0 W/m2 SCT
19:42 55.0 °F /  12.8 °C 39.1 °F /  3.9 °C 30.11in /  1019.5hPa SSE 1.2mph /  1.9km/h 1.2mph /  1.9km/h 55% 0.00in /  0mm 0.0 W/m2 SCT
19:47 54.8 °F /  12.7 °C 39.4 °F /  4.1 °C 30.11in /  1019.5hPa Calm   0.1mph /  0.2km/h 56% 0.00in /  0mm 0.0 W/m2 SCT
19:52 54.7 °F /  12.6 °C 39.3 °F /  4.1 °C 30.11in /  1019.5hPa Calm     56% 0.00in /  0mm 0.0 W/m2 SCT
19:57 54.5 °F /  12.5 °C 39.1 °F /  3.9 °C 30.10in /  1019.2hPa SSE 1.2mph /  1.9km/h 1.2mph /  1.9km/h 56% 0.00in /  0mm 0.0 W/m2 SCT
20:02 54.3 °F /  12.4 °C 39.4 °F /  4.1 °C 30.10in /  1019.2hPa Calm     57% 0.00in /  0mm 0.0 W/m2 SCT
20:07 54.2 °F /  12.3 °C 39.3 °F /  4.1 °C 30.10in /  1019.2hPa Calm     57% 0.00in /  0mm 0.0 W/m2 SCT
20:12 54.2 °F /  12.3 °C 39.3 °F /  4.1 °C 30.10in /  1019.2hPa Calm     57% 0.00in /  0mm 0.0 W/m2 SCT
20:17 54.3 °F /  12.4 °C 39.4 °F /  4.1 °C 30.10in /  1019.2hPa Calm     57% 0.00in /  0mm 0.0 W/m2 SCT
20:22 54.3 °F /  12.4 °C 39.4 °F /  4.1 °C 30.10in /  1019.2hPa Calm     57% 0.00in /  0mm 0.0 W/m2 SCT
20:27 54.4 °F /  12.4 °C 39.5 °F /  4.2 °C 30.10in /  1019.2hPa Calm     57% 0.00in /  0mm 0.0 W/m2 SCT
20:32 54.3 °F /  12.4 °C 39.8 °F /  4.3 °C 30.10in /  1019.2hPa Calm     58% 0.00in /  0mm 0.0 W/m2 SCT
20:37 54.2 °F /  12.3 °C 39.7 °F /  4.3 °C 30.10in /  1019.2hPa Calm     58% 0.00in /  0mm 0.0 W/m2 SCT
20:42 54.1 °F /  12.3 °C 40.1 °F /  4.5 °C 30.10in /  1019.2hPa SSE 1.2mph /  1.9km/h 1.2mph /  1.9km/h 59% 0.00in /  0mm 0.0 W/m2 SCT
20:47 53.9 °F /  12.2 °C 40.3 °F /  4.6 °C 30.09in /  1018.8hPa SSE 1.2mph /  1.9km/h 1.2mph /  1.9km/h 60% 0.00in /  0mm 0.0 W/m2 SCT
20:52 53.7 °F /  12.1 °C 39.7 °F /  4.3 °C 30.10in /  1019.2hPa Calm     59% 0.00in /  0mm 0.0 W/m2 SCT
20:57 53.6 °F /  12 °C 40.0 °F /  4.4 °C 30.10in /  1019.2hPa Calm   0.7mph /  1.1km/h 60% 0.00in /  0mm 0.0 W/m2 SCT
21:02 53.6 °F /  12 °C 40.0 °F /  4.4 °C 30.10in /  1019.2hPa SSE 1.2mph /  1.9km/h 1.2mph /  1.9km/h 60% 0.00in /  0mm 0.0 W/m2 OVC
21:07 53.6 °F /  12 °C 40.5 °F /  4.7 °C 30.09in /  1018.8hPa SSE 1.2mph /  1.9km/h 1.2mph /  1.9km/h 61% 0.00in /  0mm 0.0 W/m2 OVC
21:12 53.6 °F /  12 °C 40.5 °F /  4.7 °C 30.09in /  1018.8hPa SSE 1.2mph /  1.9km/h   61% 0.00in /  0mm 0.0 W/m2 OVC
21:17 53.6 °F /  12 °C 40.5 °F /  4.7 °C 30.09in /  1018.8hPa Calm     61% 0.00in /  0mm 0.0 W/m2 OVC
21:22 53.7 °F /  12.1 °C 40.6 °F /  4.8 °C 30.10in /  1019.2hPa SSE 2.3mph /  3.7km/h 2.3mph /  3.7km/h 61% 0.00in /  0mm 0.0 W/m2 OVC
21:27 53.9 °F /  12.2 °C 40.8 °F /  4.9 °C 30.09in /  1018.8hPa Calm     61% 0.00in /  0mm 0.0 W/m2 OVC
21:32 54.0 °F /  12.2 °C 41.3 °F /  5.2 °C 30.09in /  1018.8hPa SSE 1.2mph /  1.9km/h   62% 0.00in /  0mm 0.0 W/m2 OVC
21:37 53.9 °F /  12.2 °C 41.2 °F /  5.1 °C 30.09in /  1018.8hPa Calm     62% 0.00in /  0mm 0.0 W/m2 OVC
21:42 53.8 °F /  12.1 °C 41.1 °F /  5.1 °C 30.09in /  1018.8hPa Calm     62% 0.00in /  0mm 0.0 W/m2 OVC
21:47 53.7 °F /  12.1 °C 41.0 °F /  5 °C 30.09in /  1018.8hPa Calm     62% 0.00in /  0mm 0.0 W/m2 OVC
21:52 53.6 °F /  12 °C 41.3 °F /  5.2 °C 30.10in /  1019.2hPa SSE 1.2mph /  1.9km/h   63% 0.00in /  0mm 0.0 W/m2 OVC
21:57 53.9 °F /  12.2 °C 42.0 °F /  5.6 °C 30.10in /  1019.2hPa SSE 3.5mph /  5.6km/h 3.5mph /  5.6km/h 64% 0.00in /  0mm 0.0 W/m2 OVC
22:02 54.0 °F /  12.2 °C 43.3 °F /  6.3 °C 30.09in /  1018.8hPa SSW 5.8mph /  9.3km/h 5.8mph /  9.3km/h 67% 0.00in /  0mm 0.0 W/m2 OVC
22:07 53.7 °F /  12.1 °C 45.2 °F /  7.3 °C 30.09in /  1018.8hPa SSW 3.5mph /  5.6km/h 3.5mph /  5.6km/h 73% 0.01in /  0.25mm 0.0 W/m2 RA
22:12 53.2 °F /  11.8 °C 45.8 °F /  7.7 °C 30.09in /  1018.8hPa SW 3.5mph /  5.6km/h 3.5mph /  5.6km/h 76% 0.03in /  0.76mm 0.0 W/m2 RA
22:17 52.5 °F /  11.4 °C 46.2 °F /  7.9 °C 30.09in /  1018.8hPa SSW 3.5mph /  5.6km/h 3.5mph /  5.6km/h 79% 0.05in /  1.27mm 0.0 W/m2 +RA
22:22 51.8 °F /  11 °C 46.5 °F /  8.1 °C 30.09in /  1018.8hPa SSW 2.3mph /  3.7km/h 2.3mph /  3.7km/h 82% 0.07in /  1.78mm 0.0 W/m2 +RA
22:27 51.3 °F /  10.7 °C 46.6 °F /  8.1 °C 30.10in /  1019.2hPa SSW 2.3mph /  3.7km/h 2.3mph /  3.7km/h 84% 0.10in /  2.54mm 0.0 W/m2 +RA
22:32 50.8 °F /  10.4 °C 46.8 °F /  8.2 °C 30.10in /  1019.2hPa Calm     86% 0.12in /  3.05mm 0.0 W/m2 RA
22:37 50.5 °F /  10.3 °C 46.8 °F /  8.2 °C 30.10in /  1019.2hPa SSW 1.2mph /  1.9km/h 1.2mph /  1.9km/h 87% 0.14in /  3.56mm 0.0 W/m2 RA
22:42 50.3 °F /  10.2 °C 46.6 °F /  8.1 °C 30.11in /  1019.5hPa SSW 2.3mph /  3.7km/h 2.3mph /  3.7km/h 87% 0.16in /  4.06mm 0.0 W/m2 -RA
22:47 50.0 °F /  10 °C 46.3 °F /  7.9 °C 30.11in /  1019.5hPa SSW 3.5mph /  5.6km/h 3.5mph /  5.6km/h 87% 0.19in /  4.83mm 0.0 W/m2 -RA
22:52 49.9 °F /  9.9 °C 46.5 °F /  8.1 °C 30.11in /  1019.5hPa Calm     88% 0.22in /  5.59mm 0.0 W/m2 -RA
22:57 49.8 °F /  9.9 °C 46.4 °F /  8 °C 30.09in /  1018.8hPa SSW 1.2mph /  1.9km/h 1.2mph /  1.9km/h 88% 0.25in /  6.35mm 0.0 W/m2 -RA
23:02 49.7 °F /  9.8 °C 46.3 °F /  7.9 °C 30.09in /  1018.8hPa SSW 2.3mph /  3.7km/h 2.3mph /  3.7km/h 88% 0.27in /  6.86mm 0.0 W/m2 RA
23:07 49.6 °F /  9.8 °C 46.2 °F /  7.9 °C 30.09in /  1018.8hPa SSW 2.3mph /  3.7km/h 2.3mph /  3.7km/h 88% 0.27in /  6.86mm 0.0 W/m2 RA
23:12 49.5 °F /  9.7 °C 45.8 °F /  7.7 °C 30.08in /  1018.5hPa SSW 1.2mph /  1.9km/h 1.2mph /  1.9km/h 87% 0.25in /  6.35mm 0.0 W/m2 -RA
23:17 49.4 °F /  9.7 °C 45.7 °F /  7.6 °C 30.08in /  1018.5hPa SSW 2.3mph /  3.7km/h 2.3mph /  3.7km/h 87% 0.23in /  5.84mm 0.0 W/m2 -RA
23:22 49.4 °F /  9.7 °C 45.7 °F /  7.6 °C 30.08in /  1018.5hPa SSW 1.2mph /  1.9km/h 1.2mph /  1.9km/h 87% 0.21in /  5.33mm 0.0 W/m2 -RA
23:27 49.4 °F /  9.7 °C 45.7 °F /  7.6 °C 30.08in /  1018.5hPa Calm     87% 0.19in /  4.83mm 0.0 W/m2 -RA
23:32 49.4 °F /  9.7 °C 45.7 °F /  7.6 °C 30.08in /  1018.5hPa Calm     87% 0.19in /  4.83mm 0.0 W/m2 -RA
23:37 49.4 °F /  9.7 °C 45.7 °F /  7.6 °C 30.08in /  1018.5hPa SSW 1.2mph /  1.9km/h   87% 0.18in /  4.57mm 0.0 W/m2 -RA
23:42 49.4 °F /  9.7 °C 45.4 °F /  7.4 °C 30.08in /  1018.5hPa SSW 3.0mph /  4.8km/h 3.0mph /  4.8km/h 86% 0.18in /  4.57mm 0.0 W/m2 -RA
23:47 49.4 °F /  9.7 °C 45.4 °F /  7.4 °C 30.08in /  1018.5hPa SSW 1.2mph /  1.9km/h 1.2mph /  1.9km/h 86% 0.17in /  4.32mm 0.0 W/m2 -RA
23:52 49.5 °F /  9.7 °C 45.5 °F /  7.5 °C 30.08in /  1018.5hPa SSW 1.2mph /  1.9km/h 1.2mph /  1.9km/h 86% 0.14in /  3.56mm 0.0 W/m2 -RA
23:57 49.5 °F /  9.7 °C 45.5 °F /  7.5 °C 30.06in /  1017.8hPa SSW 2.3mph /  3.7km/h 2.3mph /  3.7km/h 86% 0.12in /  3.05mm 0.0 W/m2 -RA
Bruceton, TN. NWS Weather Forecast
Compliments of:  Weather Underground - 5.25 mb

Interesting Weather Facts
HOTTEST YEAR EVER
Through August 2007, the U.S. experienced its hottest year ever. During the month of August, more than 8,000 new heat maximum and minimum records were set or tied across the country.